createdAt,value
2023-05-02T00:00:10.998Z,5.20
2023-05-02T00:01:10.991Z,5.40
2023-05-02T00:02:11.035Z,5.40
2023-05-02T00:03:11.113Z,5.30
2023-05-02T00:04:11.053Z,5.30
2023-05-02T00:05:10.986Z,5.40
2023-05-02T00:06:11.004Z,5.50
2023-05-02T00:07:10.943Z,5.50
2023-05-02T00:08:11.056Z,5.00
2023-05-02T00:09:10.943Z,5.20
2023-05-02T00:10:10.926Z,5.30
2023-05-02T00:11:10.916Z,5.50
2023-05-02T00:12:10.934Z,5.50
2023-05-02T00:13:10.907Z,5.60
2023-05-02T00:14:10.926Z,5.70
2023-05-02T00:15:10.891Z,5.40
2023-05-02T00:16:10.921Z,5.10
2023-05-02T00:17:11.090Z,5.30
2023-05-02T00:18:10.965Z,5.40
2023-05-02T00:19:10.882Z,5.40
2023-05-02T00:20:10.858Z,5.70
2023-05-02T00:21:10.854Z,5.20
2023-05-02T00:22:10.850Z,5.40
2023-05-02T00:23:10.840Z,5.70
2023-05-02T00:24:10.833Z,5.50
2023-05-02T00:25:10.833Z,5.50
2023-05-02T00:26:10.833Z,5.20
2023-05-02T00:27:10.826Z,5.50
2023-05-02T00:28:10.807Z,5.50
2023-05-02T00:29:10.823Z,5.50
2023-05-02T00:30:10.835Z,5.60
2023-05-02T00:31:10.863Z,5.50
2023-05-02T00:32:10.776Z,5.50
2023-05-02T00:33:10.851Z,5.50
2023-05-02T00:34:10.850Z,5.50
2023-05-02T00:35:10.758Z,5.50
2023-05-02T00:36:10.776Z,5.40
2023-05-02T00:37:10.790Z,5.40
2023-05-02T00:38:10.741Z,5.30
2023-05-02T00:39:10.728Z,5.50
2023-05-02T00:40:10.727Z,5.60
2023-05-02T00:41:10.719Z,5.40
2023-05-02T00:42:10.713Z,5.60
2023-05-02T00:43:10.734Z,5.40
2023-05-02T00:44:10.710Z,5.30
2023-05-02T00:45:10.693Z,5.30
2023-05-02T00:46:10.767Z,5.60
2023-05-02T00:47:10.687Z,5.40
2023-05-02T00:48:10.733Z,5.30
2023-05-02T00:49:10.664Z,5.70
2023-05-02T00:50:10.686Z,5.40
2023-05-02T00:51:10.651Z,5.20
2023-05-02T00:52:10.759Z,5.60
2023-05-02T00:53:10.653Z,5.20
2023-05-02T00:54:10.628Z,5.70
2023-05-02T00:55:10.628Z,5.40
2023-05-02T00:56:10.641Z,5.10
2023-05-02T00:57:10.615Z,5.10
2023-05-02T00:58:10.601Z,4.70
2023-05-02T00:59:10.595Z,4.80
2023-05-02T01:00:10.595Z,5.10
2023-05-02T01:01:10.687Z,4.70
2023-05-02T01:02:10.614Z,4.70
2023-05-02T01:03:10.640Z,4.60
2023-05-02T01:04:10.744Z,4.70
2023-05-02T01:05:10.562Z,4.70
2023-05-02T01:06:10.637Z,4.70
2023-05-02T01:07:10.529Z,5.00
2023-05-02T01:08:10.545Z,4.40
2023-05-02T01:09:10.536Z,4.60
2023-05-02T01:10:10.530Z,4.70
2023-05-02T01:11:10.526Z,4.60
2023-05-02T01:12:10.500Z,4.40
2023-05-02T01:13:10.498Z,4.50
2023-05-02T01:14:10.489Z,4.80
2023-05-02T01:15:10.482Z,4.60
2023-05-02T01:16:10.500Z,4.40
2023-05-02T01:17:10.461Z,4.30
2023-05-02T01:18:10.593Z,4.50
2023-05-02T01:19:10.452Z,4.20
2023-05-02T01:20:10.450Z,4.40
2023-05-02T01:21:10.440Z,4.60
2023-05-02T01:22:10.428Z,4.30
2023-05-02T01:23:10.421Z,4.50
2023-05-02T01:24:10.447Z,4.40
2023-05-02T01:25:10.409Z,4.20
2023-05-02T01:26:10.418Z,4.10
2023-05-02T01:27:10.403Z,4.10
2023-05-02T01:28:10.390Z,4.10
2023-05-02T01:29:10.381Z,4.20
2023-05-02T01:30:10.377Z,4.40
2023-05-02T01:31:10.433Z,4.30
2023-05-02T01:32:10.356Z,4.40
2023-05-02T01:33:10.407Z,4.30
2023-05-02T01:34:10.377Z,4.20
2023-05-02T01:35:10.388Z,4.00
2023-05-02T01:36:10.331Z,4.20
2023-05-02T01:37:10.360Z,4.00
2023-05-02T01:38:10.319Z,4.30
2023-05-02T01:39:10.311Z,4.00
2023-05-02T01:40:10.340Z,4.20
2023-05-02T01:41:10.303Z,4.40
2023-05-02T01:42:10.317Z,4.10
2023-05-02T01:43:10.296Z,4.10
2023-05-02T01:44:10.278Z,4.10
2023-05-02T01:45:10.286Z,4.00
2023-05-02T01:46:10.282Z,4.10
2023-05-02T01:47:10.330Z,3.80
2023-05-02T01:48:10.335Z,4.10
2023-05-02T01:49:10.244Z,4.10
2023-05-02T01:50:10.239Z,4.10
2023-05-02T01:51:10.228Z,4.10
2023-05-02T01:52:10.217Z,4.10
2023-05-02T01:53:10.213Z,4.00
2023-05-02T01:54:10.227Z,4.00
2023-05-02T01:55:10.208Z,3.80
2023-05-02T01:56:10.191Z,4.10
2023-05-02T01:57:10.185Z,3.60
2023-05-02T01:58:10.183Z,3.70
2023-05-02T01:59:10.163Z,3.80
2023-05-02T02:00:10.161Z,3.80
2023-05-02T02:01:10.243Z,3.60
2023-05-02T02:02:10.171Z,3.70
2023-05-02T02:03:10.186Z,3.60
2023-05-02T02:04:10.299Z,3.70
2023-05-02T02:05:10.129Z,4.00
2023-05-02T02:06:10.158Z,3.60
2023-05-02T02:07:10.117Z,3.70
2023-05-02T02:08:10.116Z,3.70
2023-05-02T02:09:10.136Z,3.40
2023-05-02T02:10:10.105Z,3.50
2023-05-02T02:11:10.079Z,3.70
2023-05-02T02:12:10.075Z,3.50
2023-05-02T02:13:10.073Z,3.60
2023-05-02T02:14:10.059Z,3.70
2023-05-02T02:15:10.055Z,3.70
2023-05-02T02:16:10.103Z,3.70
2023-05-02T02:17:10.116Z,3.50
2023-05-02T02:18:10.057Z,3.40
2023-05-02T02:19:10.028Z,3.50
2023-05-02T02:20:10.020Z,3.50
2023-05-02T02:21:10.013Z,3.70
2023-05-02T02:22:10.001Z,3.60
2023-05-02T02:23:10.126Z,3.50
2023-05-02T02:24:09.989Z,3.30
2023-05-02T02:25:09.991Z,3.50
2023-05-02T02:26:09.974Z,3.30
2023-05-02T02:27:09.969Z,3.30
2023-05-02T02:28:09.959Z,3.40
2023-05-02T02:29:09.949Z,3.10
2023-05-02T02:30:09.958Z,3.30
2023-05-02T02:31:09.969Z,3.20
2023-05-02T02:32:09.951Z,3.50
2023-05-02T02:33:10.048Z,3.40
2023-05-02T02:34:09.919Z,3.30
2023-05-02T02:35:09.900Z,3.20
2023-05-02T02:36:09.895Z,3.30
2023-05-02T02:37:09.902Z,3.20
2023-05-02T02:38:09.885Z,3.40
2023-05-02T02:39:09.884Z,3.20
2023-05-02T02:40:09.864Z,3.20
2023-05-02T02:41:09.882Z,3.20
2023-05-02T02:42:09.848Z,3.20
2023-05-02T02:43:09.864Z,3.20
2023-05-02T02:44:11.048Z,3.00
2023-05-02T02:45:09.829Z,3.30
2023-05-02T02:46:09.867Z,3.00
2023-05-02T02:47:09.810Z,3.00
2023-05-02T02:48:09.891Z,3.10
2023-05-02T02:49:09.792Z,3.00
2023-05-02T02:50:09.797Z,3.20
2023-05-02T02:51:09.779Z,3.40
2023-05-02T02:52:09.765Z,3.20
2023-05-02T02:53:09.775Z,3.30
2023-05-02T02:54:22.912Z,3.10
2023-05-02T02:55:09.752Z,3.20
2023-05-02T02:56:09.749Z,3.00
2023-05-02T02:57:09.729Z,3.10
2023-05-02T02:58:09.727Z,3.20
2023-05-02T02:59:09.713Z,3.20
2023-05-02T03:00:09.715Z,3.00
2023-05-02T03:01:09.730Z,3.20
2023-05-02T03:02:09.787Z,3.30
2023-05-02T03:03:09.744Z,3.20
2023-05-02T03:04:09.697Z,3.10
2023-05-02T03:05:09.698Z,3.20
2023-05-02T03:06:09.685Z,2.90
2023-05-02T03:07:09.670Z,2.90
2023-05-02T03:08:09.646Z,3.00
2023-05-02T03:09:09.673Z,3.00
2023-05-02T03:10:09.639Z,2.90
2023-05-02T03:11:09.772Z,3.10
2023-05-02T03:12:09.623Z,2.90
2023-05-02T03:13:09.609Z,3.10
2023-05-02T03:14:09.600Z,2.80
2023-05-02T03:15:09.589Z,3.00
2023-05-02T03:16:09.654Z,2.90
2023-05-02T03:17:09.572Z,3.00
2023-05-02T03:18:09.605Z,2.90
2023-05-02T03:19:09.584Z,2.90
2023-05-02T03:20:09.556Z,3.00
2023-05-02T03:21:09.550Z,3.50
2023-05-02T03:22:09.558Z,2.90
2023-05-02T03:23:09.518Z,2.70
2023-05-02T03:24:09.524Z,2.90
2023-05-02T03:25:09.598Z,3.00
2023-05-02T03:26:09.510Z,3.00
2023-05-02T03:27:09.526Z,2.70
2023-05-02T03:28:09.502Z,2.80
2023-05-02T03:29:09.496Z,2.90
2023-05-02T03:30:09.471Z,3.00
2023-05-02T03:31:09.535Z,2.80
2023-05-02T03:32:09.585Z,2.90
2023-05-02T03:33:09.475Z,2.90
2023-05-02T03:34:09.450Z,2.90
2023-05-02T03:35:09.427Z,2.90
2023-05-02T03:36:09.412Z,2.90
2023-05-02T03:37:09.407Z,2.70
2023-05-02T03:38:09.403Z,3.10
2023-05-02T03:39:09.422Z,2.90
2023-05-02T03:40:09.404Z,2.90
2023-05-02T03:41:09.384Z,3.00
2023-05-02T03:42:09.378Z,3.00
2023-05-02T03:43:09.356Z,3.10
2023-05-02T03:44:09.350Z,3.40
2023-05-02T03:45:09.355Z,3.30
2023-05-02T03:46:09.346Z,3.00
2023-05-02T03:47:09.406Z,3.10
2023-05-02T03:48:09.364Z,3.20
2023-05-02T03:49:09.315Z,3.30
2023-05-02T03:50:09.326Z,3.10
2023-05-02T03:51:09.340Z,3.20
2023-05-02T03:52:09.310Z,3.00
2023-05-02T03:53:09.276Z,3.20
2023-05-02T03:54:09.280Z,3.10
2023-05-02T03:55:09.267Z,3.20
2023-05-02T03:56:09.257Z,3.20
2023-05-02T03:57:09.248Z,3.00
2023-05-02T03:58:09.243Z,3.20
2023-05-02T03:59:09.238Z,3.40
2023-05-02T04:00:09.227Z,3.30
2023-05-02T04:01:09.224Z,3.10
2023-05-02T04:02:09.234Z,3.40
2023-05-02T04:03:09.294Z,3.30
2023-05-02T04:04:09.261Z,3.20
2023-05-02T04:05:09.194Z,3.20
2023-05-02T04:06:09.309Z,3.10
2023-05-02T04:07:09.171Z,3.30
2023-05-02T04:08:09.178Z,3.60
2023-05-02T04:09:09.151Z,3.40
2023-05-02T04:10:09.145Z,3.30
2023-05-02T04:11:09.153Z,3.40
2023-05-02T04:12:09.145Z,3.40
2023-05-02T04:13:09.122Z,3.50
2023-05-02T04:14:09.117Z,3.20
2023-05-02T04:15:09.109Z,3.60
2023-05-02T04:16:09.097Z,3.40
2023-05-02T04:18:09.182Z,3.30
2023-05-02T04:19:09.085Z,3.30
2023-05-02T04:20:09.158Z,3.40
2023-05-02T04:21:09.065Z,3.40
2023-05-02T04:22:09.050Z,3.20
2023-05-02T04:23:09.057Z,3.40
2023-05-02T04:24:09.027Z,3.10
2023-05-02T04:25:09.020Z,3.40
2023-05-02T04:26:09.016Z,3.10
2023-05-02T04:27:09.008Z,3.20
2023-05-02T04:28:09.016Z,3.40
2023-05-02T04:29:09.002Z,3.20
2023-05-02T04:30:08.984Z,3.00
2023-05-02T04:31:09.068Z,3.00
2023-05-02T04:32:08.970Z,3.30
2023-05-02T04:33:09.020Z,3.00
2023-05-02T04:34:08.951Z,3.20
2023-05-02T04:35:08.956Z,3.20
2023-05-02T04:36:08.934Z,3.00
2023-05-02T04:37:08.926Z,3.00
2023-05-02T04:38:08.923Z,3.30
2023-05-02T04:39:08.938Z,3.10
2023-05-02T04:40:08.915Z,3.10
2023-05-02T04:41:09.782Z,3.10
2023-05-02T04:42:08.945Z,2.90
2023-05-02T04:43:08.875Z,3.10
2023-05-02T04:44:08.868Z,3.30
2023-05-02T04:45:08.864Z,3.20
2023-05-02T04:46:08.892Z,3.40
2023-05-02T04:47:08.854Z,3.30
2023-05-02T04:48:08.912Z,3.20
2023-05-02T04:49:08.828Z,3.30
2023-05-02T04:50:08.822Z,3.50
2023-05-02T04:51:08.890Z,3.50
2023-05-02T04:52:08.878Z,3.20
2023-05-02T04:53:08.816Z,3.30
2023-05-02T04:54:08.793Z,3.10
2023-05-02T04:55:08.796Z,3.10
2023-05-02T04:56:08.777Z,3.20
2023-05-02T04:57:08.768Z,3.60
2023-05-02T04:58:08.764Z,3.40
2023-05-02T04:59:08.754Z,3.50
2023-05-02T05:00:08.745Z,3.40
2023-05-02T05:01:08.823Z,3.20
2023-05-02T05:02:08.934Z,3.10
2023-05-02T05:03:08.836Z,3.00
2023-05-02T05:04:08.851Z,2.70
2023-05-02T05:05:08.732Z,3.00
2023-05-02T05:06:08.713Z,2.70
2023-05-02T05:07:08.694Z,3.10
2023-05-02T05:08:08.706Z,3.30
2023-05-02T05:09:08.703Z,3.10
2023-05-02T05:10:08.702Z,3.30
2023-05-02T05:11:08.672Z,4.10
2023-05-02T05:12:08.660Z,4.00
2023-05-02T05:13:08.659Z,3.40
2023-05-02T05:14:08.653Z,3.80
2023-05-02T05:15:08.675Z,3.60
2023-05-02T05:16:08.653Z,3.80
2023-05-02T05:17:08.621Z,3.10
2023-05-02T05:18:08.674Z,2.90
2023-05-02T05:19:08.617Z,3.00
2023-05-02T05:20:09.552Z,3.10
2023-05-02T05:21:08.604Z,3.40
2023-05-02T05:22:08.596Z,5.10
2023-05-02T05:23:08.580Z,4.90
2023-05-02T05:24:08.582Z,5.10
2023-05-02T05:25:08.566Z,4.90
2023-05-02T05:26:08.558Z,4.50
2023-05-02T05:27:08.550Z,3.30
2023-05-02T05:28:08.557Z,4.20
2023-05-02T05:29:08.533Z,5.20
2023-05-02T05:30:08.548Z,4.70
2023-05-02T05:31:08.578Z,3.00
2023-05-02T05:32:08.564Z,3.60
2023-05-02T05:33:08.538Z,3.50
2023-05-02T05:34:08.608Z,4.40
2023-05-02T05:35:08.510Z,6.20
2023-05-02T05:36:08.501Z,6.00
2023-05-02T05:37:08.516Z,6.40
2023-05-02T05:38:08.478Z,6.10
2023-05-02T05:39:08.485Z,6.90
2023-05-02T05:40:08.464Z,7.20
2023-05-02T05:41:08.460Z,7.20
2023-05-02T05:42:08.451Z,7.30
2023-05-02T05:43:08.448Z,7.00
2023-05-02T05:44:08.436Z,7.10
2023-05-02T05:45:08.435Z,7.00
2023-05-02T05:46:08.433Z,7.50
2023-05-02T05:47:08.472Z,6.90
2023-05-02T05:48:08.504Z,6.90
2023-05-02T05:49:08.413Z,7.60
2023-05-02T05:50:08.408Z,7.90
2023-05-02T05:51:08.409Z,7.20
2023-05-02T05:52:08.401Z,7.10
2023-05-02T05:53:08.403Z,9.00
2023-05-02T05:54:08.383Z,8.20
2023-05-02T05:55:08.393Z,8.30
2023-05-02T05:56:08.374Z,11.20
2023-05-02T05:57:08.369Z,8.50
2023-05-02T05:58:08.362Z,8.70
2023-05-02T05:59:08.360Z,8.30
2023-05-02T06:00:08.460Z,9.20
2023-05-02T06:01:08.353Z,8.70
2023-05-02T06:02:08.389Z,8.90
2023-05-02T06:03:09.952Z,8.30
2023-05-02T06:04:08.411Z,8.50
2023-05-02T06:05:08.473Z,8.50
2023-05-02T06:06:08.355Z,8.50
2023-05-02T06:07:08.320Z,11.00
2023-05-02T06:08:08.324Z,9.80
2023-05-02T06:09:08.318Z,8.90
2023-05-02T06:10:08.307Z,9.50
2023-05-02T06:11:08.330Z,9.90
2023-05-02T06:12:08.296Z,11.20
2023-05-02T06:13:08.296Z,15.40
2023-05-02T06:14:08.289Z,15.40
2023-05-02T06:15:08.287Z,13.30
2023-05-02T06:16:08.366Z,10.40
2023-05-02T06:17:08.279Z,12.30
2023-05-02T06:18:08.314Z,11.10
2023-05-02T06:19:08.283Z,11.00
2023-05-02T06:20:08.277Z,12.00
2023-05-02T06:21:08.263Z,12.90
2023-05-02T06:22:08.256Z,11.50
2023-05-02T06:23:08.250Z,10.80
2023-05-02T06:24:08.248Z,10.70
2023-05-02T06:25:08.239Z,11.10
2023-05-02T06:26:08.240Z,11.10
2023-05-02T06:27:08.254Z,11.00
2023-05-02T06:28:08.237Z,10.00
2023-05-02T06:29:08.223Z,10.20
2023-05-02T06:30:08.241Z,10.80
2023-05-02T06:31:08.250Z,11.50
2023-05-02T06:32:08.344Z,11.70
2023-05-02T06:33:08.264Z,11.10
2023-05-02T06:34:08.206Z,11.50
2023-05-02T06:35:08.197Z,12.20
2023-05-02T06:36:08.192Z,10.60
2023-05-02T06:37:08.196Z,11.80
2023-05-02T06:38:08.185Z,13.50
2023-05-02T06:39:08.190Z,11.70
2023-05-02T06:40:08.178Z,10.90
2023-05-02T06:41:08.172Z,11.40
2023-05-02T06:42:08.172Z,11.40
2023-05-02T06:43:08.165Z,11.40
2023-05-02T06:44:08.162Z,10.90
2023-05-02T06:45:08.169Z,10.60
2023-05-02T06:46:08.169Z,10.40
2023-05-02T06:47:08.201Z,9.90
2023-05-02T06:48:08.225Z,10.30
2023-05-02T06:49:08.154Z,10.20
2023-05-02T06:50:08.140Z,10.00
2023-05-02T06:51:08.186Z,10.40
2023-05-02T06:52:08.129Z,10.20
2023-05-02T06:53:08.128Z,10.30
2023-05-02T06:54:08.127Z,9.80
2023-05-02T06:55:08.124Z,10.20
2023-05-02T06:56:08.126Z,9.20
2023-05-02T06:57:08.118Z,8.00
2023-05-02T06:58:08.114Z,9.20
2023-05-02T06:59:08.106Z,9.90
2023-05-02T07:00:08.109Z,8.90
2023-05-02T07:01:08.170Z,8.50
2023-05-02T07:02:08.095Z,9.00
2023-05-02T07:03:08.185Z,8.20
2023-05-02T07:04:08.130Z,8.20
2023-05-02T07:05:08.088Z,8.40
2023-05-02T07:06:08.104Z,8.50
2023-05-02T07:07:08.080Z,7.10
2023-05-02T07:08:08.093Z,8.40
2023-05-02T07:09:08.092Z,8.50
2023-05-02T07:10:08.071Z,7.70
2023-05-02T07:11:08.076Z,7.90
2023-05-02T07:12:08.099Z,8.20
2023-05-02T07:13:08.057Z,8.10
2023-05-02T07:14:08.058Z,7.90
2023-05-02T07:15:08.067Z,8.00
2023-05-02T07:16:08.105Z,7.00
2023-05-02T07:17:08.143Z,7.30
2023-05-02T07:18:08.129Z,7.40
2023-05-02T07:19:08.043Z,7.70
2023-05-02T07:20:08.046Z,7.30
2023-05-02T07:21:08.037Z,7.10
2023-05-02T07:22:08.034Z,6.70
2023-05-02T07:23:08.028Z,6.70
2023-05-02T07:24:08.024Z,6.50
2023-05-02T07:25:08.018Z,6.80
2023-05-02T07:26:08.029Z,6.80
2023-05-02T07:27:08.011Z,6.30
2023-05-02T07:28:08.017Z,6.70
2023-05-02T07:29:08.007Z,6.00
2023-05-02T07:30:08.009Z,5.60
2023-05-02T07:31:08.019Z,6.30
2023-05-02T07:32:08.048Z,6.10
2023-05-02T07:33:08.180Z,6.10
2023-05-02T07:34:08.000Z,6.30
2023-05-02T07:35:07.992Z,6.20
2023-05-02T07:36:07.991Z,6.40
2023-05-02T07:37:07.983Z,6.30
2023-05-02T07:38:07.993Z,6.20
2023-05-02T07:39:07.984Z,5.70
2023-05-02T07:40:07.980Z,5.80
2023-05-02T07:41:07.972Z,6.00
2023-05-02T07:42:07.975Z,6.20
2023-05-02T07:43:09.905Z,6.10
2023-05-02T07:44:07.961Z,5.90
2023-05-02T07:45:07.976Z,6.30
2023-05-02T07:46:08.010Z,5.90
2023-05-02T07:47:08.014Z,4.60
2023-05-02T07:48:07.985Z,4.80
2023-05-02T07:49:07.945Z,4.40
2023-05-02T07:50:07.950Z,4.80
2023-05-02T07:51:07.950Z,4.80
2023-05-02T07:52:07.931Z,5.10
2023-05-02T07:53:07.932Z,5.10
2023-05-02T07:54:07.923Z,5.40
2023-05-02T07:55:07.928Z,5.30
2023-05-02T07:56:07.929Z,5.20
2023-05-02T07:57:07.918Z,4.80
2023-05-02T07:58:07.915Z,5.00
2023-05-02T07:59:07.902Z,4.30
2023-05-02T08:00:07.909Z,4.00
2023-05-02T08:01:07.896Z,4.00
2023-05-02T08:02:07.921Z,4.10
2023-05-02T08:03:08.054Z,3.70
2023-05-02T08:04:08.090Z,3.40
2023-05-02T08:05:08.075Z,3.70
2023-05-02T08:06:07.922Z,3.60
2023-05-02T08:07:07.867Z,3.50
2023-05-02T08:08:07.869Z,4.10
2023-05-02T08:09:07.866Z,4.50
2023-05-02T08:10:07.896Z,4.50
2023-05-02T08:11:07.863Z,4.00
2023-05-02T08:12:07.853Z,3.90
2023-05-02T08:13:07.859Z,3.90
2023-05-02T08:14:07.841Z,3.70
2023-05-02T08:15:07.839Z,3.70
2023-05-02T08:16:07.893Z,4.20
2023-05-02T08:17:07.824Z,4.40
2023-05-02T08:18:07.898Z,4.60
2023-05-02T08:19:07.813Z,4.50
2023-05-02T08:20:07.808Z,4.80
2023-05-02T08:21:07.810Z,4.50
2023-05-02T08:22:07.811Z,4.20
2023-05-02T08:23:07.821Z,4.30
2023-05-02T08:24:07.793Z,4.40
2023-05-02T08:25:07.791Z,4.20
2023-05-02T08:26:07.789Z,4.10
2023-05-02T08:27:07.773Z,4.50
2023-05-02T08:28:07.767Z,4.50
2023-05-02T08:29:07.781Z,4.30
2023-05-02T08:30:08.012Z,4.60
2023-05-02T08:31:07.827Z,4.40
2023-05-02T08:32:07.993Z,4.50
2023-05-02T08:33:07.770Z,5.00
2023-05-02T08:34:07.739Z,5.00
2023-05-02T08:35:07.740Z,4.90
2023-05-02T08:36:07.723Z,5.10
2023-05-02T08:37:07.719Z,5.10
2023-05-02T08:38:07.718Z,5.00
2023-05-02T08:39:07.705Z,5.20
2023-05-02T08:40:07.716Z,5.40
2023-05-02T08:41:07.725Z,4.90
2023-05-02T08:42:07.706Z,4.90
2023-05-02T08:43:07.680Z,4.80
2023-05-02T08:44:07.693Z,4.50
2023-05-02T08:45:07.676Z,5.10
2023-05-02T08:46:07.664Z,5.00
2023-05-02T08:47:07.708Z,4.60
2023-05-02T08:48:07.745Z,4.80
2023-05-02T08:49:07.647Z,4.50
2023-05-02T08:50:07.662Z,4.90
2023-05-02T08:51:07.629Z,4.60
2023-05-02T08:52:07.623Z,5.60
2023-05-02T08:53:07.621Z,5.70
2023-05-02T08:54:07.624Z,4.70
2023-05-02T08:55:07.617Z,4.70
2023-05-02T08:56:07.597Z,5.10
2023-05-02T08:57:07.590Z,4.80
2023-05-02T08:58:07.584Z,4.70
2023-05-02T08:59:07.577Z,4.70
2023-05-02T09:00:07.575Z,4.70
2023-05-02T09:01:07.622Z,4.50
2023-05-02T09:02:07.561Z,4.50
2023-05-02T09:03:07.634Z,4.80
2023-05-02T09:04:07.564Z,5.00
2023-05-02T09:05:07.543Z,4.60
2023-05-02T09:06:07.776Z,5.00
2023-05-02T09:07:07.529Z,4.60
2023-05-02T09:08:07.524Z,4.50
2023-05-02T09:09:07.539Z,4.50
2023-05-02T09:10:07.509Z,4.60
2023-05-02T09:11:07.511Z,4.40
2023-05-02T09:12:07.571Z,4.60
2023-05-02T09:13:07.508Z,4.80
2023-05-02T09:14:07.483Z,4.80
2023-05-02T09:15:07.488Z,4.50
2023-05-02T09:16:07.518Z,4.60
2023-05-02T09:17:07.559Z,4.90
2023-05-02T09:18:07.471Z,4.80
2023-05-02T09:19:07.454Z,4.90
2023-05-02T09:20:07.446Z,4.90
2023-05-02T09:21:07.434Z,4.90
2023-05-02T09:22:07.434Z,4.60
2023-05-02T09:23:07.426Z,4.50
2023-05-02T09:24:07.421Z,4.80
2023-05-02T09:25:07.416Z,4.90
2023-05-02T09:26:07.411Z,4.80
2023-05-02T09:27:07.407Z,4.90
2023-05-02T09:28:07.398Z,4.80
2023-05-02T09:29:07.384Z,4.50
2023-05-02T09:30:07.382Z,4.40
2023-05-02T09:31:07.415Z,4.90
2023-05-02T09:32:07.458Z,4.40
2023-05-02T09:33:07.413Z,4.40
2023-05-02T09:34:07.366Z,4.50
2023-05-02T09:35:07.353Z,4.20
2023-05-02T09:36:07.350Z,4.30
2023-05-02T09:37:07.350Z,3.90
2023-05-02T09:38:07.337Z,3.80
2023-05-02T09:39:07.325Z,3.90
2023-05-02T09:40:07.324Z,4.00
2023-05-02T09:41:07.320Z,3.60
2023-05-02T09:42:07.323Z,3.30
2023-05-02T09:43:07.304Z,3.20
2023-05-02T09:44:07.306Z,3.10
2023-05-02T09:45:07.288Z,3.20
2023-05-02T09:46:07.313Z,3.00
2023-05-02T09:47:07.278Z,3.00
2023-05-02T09:48:07.337Z,2.70
2023-05-02T09:49:07.264Z,2.60
2023-05-02T09:50:07.260Z,2.50
2023-05-02T09:51:07.255Z,2.70
2023-05-02T09:52:07.247Z,2.70
2023-05-02T09:53:07.260Z,3.00
2023-05-02T09:54:07.240Z,3.10
2023-05-02T09:55:07.360Z,3.00
2023-05-02T09:56:07.217Z,3.10
2023-05-02T09:57:07.359Z,3.40
2023-05-02T09:58:07.206Z,3.40
2023-05-02T09:59:07.204Z,3.30
2023-05-02T10:00:07.204Z,3.30
2023-05-02T10:01:07.237Z,3.30
2023-05-02T10:02:07.191Z,3.20
2023-05-02T10:03:07.247Z,3.20
2023-05-02T10:04:07.203Z,3.40
2023-05-02T10:05:07.172Z,3.30
2023-05-02T10:06:07.231Z,3.10
2023-05-02T10:07:07.161Z,3.20
2023-05-02T10:08:07.153Z,2.90
2023-05-02T10:09:07.146Z,2.90
2023-05-02T10:10:07.141Z,2.90
2023-05-02T10:11:07.140Z,3.10
2023-05-02T10:12:07.129Z,3.10
2023-05-02T10:13:07.127Z,3.10
2023-05-02T10:14:07.117Z,2.90
2023-05-02T10:15:07.107Z,2.70
2023-05-02T10:16:07.128Z,2.30
2023-05-02T10:17:07.105Z,2.40
2023-05-02T10:18:07.124Z,2.30
2023-05-02T10:19:07.094Z,2.10
2023-05-02T10:20:07.094Z,2.00
2023-05-02T10:21:07.085Z,1.90
2023-05-02T10:22:07.069Z,2.00
2023-05-02T10:23:07.070Z,1.50
2023-05-02T10:24:07.062Z,1.90
2023-05-02T10:25:07.056Z,1.70
2023-05-02T10:26:07.047Z,1.80
2023-05-02T10:27:07.037Z,1.80
2023-05-02T10:28:07.035Z,1.80
2023-05-02T10:29:07.036Z,1.70
2023-05-02T10:30:07.024Z,1.60
2023-05-02T10:31:07.046Z,1.70
2023-05-02T10:32:07.025Z,1.90
2023-05-02T10:33:07.041Z,1.80
2023-05-02T10:34:06.997Z,2.20
2023-05-02T10:35:07.114Z,2.20
2023-05-02T10:36:06.995Z,2.60
2023-05-02T10:37:06.979Z,2.70
2023-05-02T10:38:06.979Z,2.90
2023-05-02T10:39:06.975Z,2.90
2023-05-02T10:40:06.957Z,3.40
2023-05-02T10:41:06.952Z,3.60
2023-05-02T10:42:06.959Z,4.00
2023-05-02T10:43:06.940Z,4.30
2023-05-02T10:44:06.939Z,4.30
2023-05-02T10:45:06.934Z,4.40
2023-05-02T10:46:06.940Z,4.40
2023-05-02T10:47:06.945Z,4.60
2023-05-02T10:48:06.954Z,4.70
2023-05-02T10:49:06.914Z,4.90
2023-05-02T10:50:06.898Z,5.10
2023-05-02T10:51:06.886Z,5.20
2023-05-02T10:52:06.877Z,5.20
2023-05-02T10:53:06.877Z,5.50
2023-05-02T10:54:06.858Z,5.30
2023-05-02T10:55:06.858Z,5.10
2023-05-02T10:56:06.848Z,5.20
2023-05-02T10:57:06.857Z,5.30
2023-05-02T10:58:06.839Z,5.70
2023-05-02T10:59:06.824Z,5.20
2023-05-02T11:00:06.838Z,5.10
2023-05-02T11:01:06.837Z,4.90
2023-05-02T11:02:07.315Z,4.90
2023-05-02T11:03:06.938Z,4.80
2023-05-02T11:04:06.806Z,4.70
2023-05-02T11:05:06.792Z,4.70
2023-05-02T11:06:06.842Z,4.70
2023-05-02T11:07:06.782Z,4.90
2023-05-02T11:08:06.760Z,4.70
2023-05-02T11:09:06.751Z,4.80
2023-05-02T11:10:06.749Z,4.50
2023-05-02T11:11:06.815Z,4.20
2023-05-02T11:12:06.730Z,4.20
2023-05-02T11:13:06.738Z,4.00
2023-05-02T11:14:06.712Z,3.80
2023-05-02T11:15:06.724Z,4.10
2023-05-02T11:16:06.719Z,3.90
2023-05-02T11:17:06.711Z,3.50
2023-05-02T11:18:06.766Z,3.60
2023-05-02T11:19:06.676Z,3.30
2023-05-02T11:20:06.680Z,3.40
2023-05-02T11:21:06.665Z,3.10
2023-05-02T11:22:06.659Z,3.20
2023-05-02T11:23:06.649Z,3.30
2023-05-02T11:24:06.644Z,3.10
2023-05-02T11:25:06.641Z,3.00
2023-05-02T11:26:06.631Z,3.20
2023-05-02T11:27:06.626Z,2.80
2023-05-02T11:28:06.614Z,3.20
2023-05-02T11:29:06.614Z,2.50
2023-05-02T11:30:06.612Z,2.50
2023-05-02T11:31:06.605Z,2.40
2023-05-02T11:32:06.604Z,2.30
2023-05-02T11:33:06.622Z,2.50
2023-05-02T11:34:06.574Z,2.30
2023-05-02T11:35:06.570Z,2.30
2023-05-02T11:36:06.560Z,2.60
2023-05-02T11:37:06.562Z,2.40
2023-05-02T11:38:06.550Z,2.40
2023-05-02T11:39:06.539Z,2.30
2023-05-02T11:40:06.532Z,2.60
2023-05-02T11:41:06.534Z,2.20
2023-05-02T11:42:06.546Z,2.40
2023-05-02T11:43:06.512Z,2.30
2023-05-02T11:44:06.512Z,2.10
2023-05-02T11:45:06.518Z,2.20
2023-05-02T11:46:06.512Z,2.30
2023-05-02T11:47:06.483Z,2.20
2023-05-02T11:48:06.598Z,2.20
2023-05-02T11:49:08.302Z,2.40
2023-05-02T11:50:06.471Z,2.10
2023-05-02T11:51:06.484Z,2.40
2023-05-02T11:52:06.457Z,2.10
2023-05-02T11:53:06.449Z,2.40
2023-05-02T11:54:06.438Z,2.30
2023-05-02T11:55:06.452Z,2.10
2023-05-02T11:56:06.426Z,2.00
2023-05-02T11:57:06.429Z,2.00
2023-05-02T11:58:06.410Z,2.20
2023-05-02T11:59:06.424Z,2.10
2023-05-02T12:00:06.401Z,2.20
2023-05-02T12:01:06.411Z,2.30
2023-05-02T12:02:06.401Z,2.10
2023-05-02T12:03:06.486Z,2.30
2023-05-02T12:04:06.375Z,2.20
2023-05-02T12:05:06.419Z,2.30
2023-05-02T12:06:06.466Z,2.40
2023-05-02T12:07:06.458Z,2.30
2023-05-02T12:08:06.345Z,2.30
2023-05-02T12:09:06.340Z,2.40
2023-05-02T12:10:06.342Z,2.30
2023-05-02T12:11:06.334Z,2.50
2023-05-02T12:12:06.334Z,2.40
2023-05-02T12:13:06.327Z,2.30
2023-05-02T12:14:06.343Z,2.40
2023-05-02T12:15:06.309Z,2.50
2023-05-02T12:16:06.329Z,2.30
2023-05-02T12:17:06.321Z,2.30
2023-05-02T12:18:06.353Z,2.60
2023-05-02T12:19:06.278Z,2.30
2023-05-02T12:20:06.282Z,2.30
2023-05-02T12:21:06.264Z,2.30
2023-05-02T12:22:06.261Z,2.40
2023-05-02T12:23:06.254Z,2.50
2023-05-02T12:24:06.252Z,2.70
2023-05-02T12:25:06.245Z,2.80
2023-05-02T12:26:06.231Z,2.70
2023-05-02T12:27:06.225Z,2.60
2023-05-02T12:28:06.219Z,2.90
2023-05-02T12:29:06.215Z,2.70
2023-05-02T12:30:06.215Z,2.90
2023-05-02T12:31:06.216Z,3.00
2023-05-02T12:32:06.185Z,2.90
2023-05-02T12:33:06.194Z,3.00
2023-05-02T12:34:06.178Z,3.10
2023-05-02T12:35:06.174Z,3.00
2023-05-02T12:36:06.165Z,3.30
2023-05-02T12:37:06.194Z,3.20
2023-05-02T12:38:06.187Z,3.10
2023-05-02T12:39:06.168Z,3.10
2023-05-02T12:40:06.142Z,3.00
2023-05-02T12:41:06.130Z,2.80
2023-05-02T12:42:06.128Z,3.00
2023-05-02T12:43:06.126Z,3.00
2023-05-02T12:44:06.133Z,2.90
2023-05-02T12:45:06.098Z,2.70
2023-05-02T12:46:06.097Z,2.90
2023-05-02T12:47:06.105Z,3.00
2023-05-02T12:48:06.121Z,3.00
2023-05-02T12:49:06.205Z,3.20
2023-05-02T12:50:06.073Z,3.20
2023-05-02T12:51:06.073Z,3.10
2023-05-02T12:52:06.056Z,3.20
2023-05-02T12:53:06.046Z,3.30
2023-05-02T12:54:06.044Z,3.10
2023-05-02T12:55:06.038Z,3.20
2023-05-02T12:56:06.035Z,3.20
2023-05-02T12:57:06.048Z,3.10
2023-05-02T12:58:06.017Z,3.20
2023-05-02T12:59:06.016Z,2.80
2023-05-02T13:00:06.000Z,2.90
2023-05-02T13:01:06.037Z,3.10
2023-05-02T13:02:05.991Z,3.10
2023-05-02T13:03:06.167Z,2.80
2023-05-02T13:04:06.051Z,2.80
2023-05-02T13:05:05.982Z,3.00
2023-05-02T13:06:05.982Z,3.20
2023-05-02T13:07:05.956Z,3.10
2023-05-02T13:08:05.958Z,3.00
2023-05-02T13:09:05.941Z,2.80
2023-05-02T13:10:05.934Z,3.10
2023-05-02T13:11:05.936Z,2.70
2023-05-02T13:12:05.924Z,2.90
2023-05-02T13:13:05.916Z,2.70
2023-05-02T13:14:06.024Z,2.80
2023-05-02T13:15:05.926Z,2.80
2023-05-02T13:16:05.941Z,2.60
2023-05-02T13:17:06.006Z,2.50
2023-05-02T13:18:05.970Z,2.60